createdAt,value
2019-06-01T00:00:11.585Z,12.50
2019-06-01T00:00:48.860Z,12.40
2019-06-01T00:01:25.117Z,12.40
2019-06-01T00:02:01.242Z,12.40
2019-06-01T00:02:38.456Z,12.40
2019-06-01T00:03:14.764Z,12.40
2019-06-01T00:03:50.456Z,12.40
2019-06-01T00:04:26.403Z,12.40
2019-06-01T00:05:02.295Z,12.40
2019-06-01T00:05:38.458Z,12.40
2019-06-01T00:06:14.473Z,12.40
2019-06-01T00:06:50.423Z,12.30
2019-06-01T00:07:25.956Z,12.30
2019-06-01T00:08:02.203Z,12.40
2019-06-01T00:08:40.214Z,12.30
2019-06-01T00:09:15.203Z,12.30
2019-06-01T00:09:51.156Z,12.30
2019-06-01T00:10:27.076Z,12.30
2019-06-01T00:11:02.407Z,12.30
2019-06-01T00:11:39.264Z,12.30
2019-06-01T00:12:16.975Z,12.30
2019-06-01T00:12:53.945Z,12.30
2019-06-01T00:13:29.962Z,12.30
2019-06-01T00:14:06.031Z,12.30
2019-06-01T00:14:41.735Z,12.30
2019-06-01T00:15:17.957Z,12.30
2019-06-01T00:15:53.940Z,12.30
2019-06-01T00:16:29.267Z,12.30
2019-06-01T00:17:05.238Z,12.20
2019-06-01T00:17:41.871Z,12.30
2019-06-01T00:18:18.667Z,12.30
2019-06-01T00:18:54.661Z,12.20
2019-06-01T00:19:30.645Z,12.20
2019-06-01T00:20:06.258Z,12.20
2019-06-01T00:20:42.330Z,12.20
2019-06-01T00:21:18.374Z,12.20
2019-06-01T00:21:54.337Z,12.20
2019-06-01T00:22:30.364Z,12.20
2019-06-01T00:23:06.507Z,12.20
2019-06-01T00:23:42.925Z,12.20
2019-06-01T00:24:19.009Z,12.20
2019-06-01T00:24:56.191Z,12.20
2019-06-01T00:25:31.583Z,12.20
2019-06-01T00:26:07.767Z,12.20
2019-06-01T00:26:43.806Z,12.20
2019-06-01T00:27:19.269Z,12.20
2019-06-01T00:27:55.272Z,12.10
2019-06-01T00:28:31.122Z,12.10
2019-06-01T00:29:07.687Z,12.10
2019-06-01T00:29:44.666Z,12.10
2019-06-01T00:30:27.029Z,12.10
2019-06-01T00:30:58.165Z,12.10
2019-06-01T00:31:34.110Z,12.10
2019-06-01T00:32:10.168Z,12.10
2019-06-01T00:32:47.294Z,12.10
2019-06-01T00:33:24.846Z,12.10
2019-06-01T00:34:00.850Z,12.10
2019-06-01T00:34:37.305Z,12.10
2019-06-01T00:35:13.245Z,12.10
2019-06-01T00:35:49.543Z,12.10
2019-06-01T00:36:25.129Z,12.10
2019-06-01T00:37:01.179Z,12.10
2019-06-01T00:37:37.120Z,12.00
2019-06-01T00:38:12.550Z,12.00
2019-06-01T00:38:49.997Z,12.00
2019-06-01T00:39:26.082Z,12.00
2019-06-01T00:40:01.524Z,12.00
2019-06-01T00:40:37.665Z,12.00
2019-06-01T00:41:13.700Z,12.00
2019-06-01T00:41:50.158Z,12.00
2019-06-01T00:42:27.437Z,12.00
2019-06-01T00:43:04.397Z,12.00
2019-06-01T00:43:39.947Z,12.00
2019-06-01T00:44:16.085Z,12.00
2019-06-01T00:44:52.487Z,12.00
2019-06-01T00:45:28.576Z,12.00
2019-06-01T00:46:04.520Z,12.00
2019-06-01T00:46:40.568Z,12.00
2019-06-01T00:47:15.985Z,12.00
2019-06-01T00:47:53.026Z,12.00
2019-06-01T00:48:29.228Z,12.00
2019-06-01T00:49:04.640Z,12.00
2019-06-01T00:49:40.588Z,12.00
2019-06-01T00:50:16.608Z,12.00
2019-06-01T00:50:53.225Z,12.00
2019-06-01T00:51:29.440Z,12.00
2019-06-01T00:52:05.687Z,12.00
2019-06-01T00:52:41.014Z,12.00
2019-06-01T00:53:16.647Z,12.00
2019-06-01T00:53:53.582Z,12.00
2019-06-01T00:54:29.159Z,12.00
2019-06-01T00:55:06.307Z,12.00
2019-06-01T00:55:43.168Z,12.00
2019-06-01T00:56:18.720Z,12.00
2019-06-01T00:56:54.877Z,12.00
2019-06-01T00:57:30.896Z,12.00
2019-06-01T00:58:06.340Z,12.00
2019-06-01T00:58:43.541Z,12.00
2019-06-01T00:59:19.977Z,12.00
2019-06-01T00:59:55.401Z,12.00
2019-06-01T01:00:43.257Z,12.00
2019-06-01T01:01:09.133Z,12.00
2019-06-01T01:01:45.800Z,12.00
2019-06-01T01:02:22.916Z,12.00
2019-06-01T01:02:58.914Z,12.00
2019-06-01T01:03:35.360Z,12.00
2019-06-01T01:04:11.275Z,12.00
2019-06-01T01:04:48.333Z,12.00
2019-06-01T01:05:24.407Z,12.00
2019-06-01T01:06:00.460Z,12.00
2019-06-01T01:06:42.350Z,12.00
2019-06-01T01:07:17.637Z,12.00
2019-06-01T01:07:55.034Z,12.00
2019-06-01T01:08:32.525Z,11.90
2019-06-01T01:09:09.102Z,11.90
2019-06-01T01:09:45.130Z,11.90
2019-06-01T01:10:22.110Z,11.90
2019-06-01T01:10:57.627Z,11.90
2019-06-01T01:11:33.787Z,11.90
2019-06-01T01:12:09.788Z,11.90
2019-06-01T01:13:03.892Z,11.90
2019-06-01T01:13:39.320Z,11.90
2019-06-01T01:14:15.481Z,11.90
2019-06-01T01:14:51.841Z,11.90
2019-06-01T01:15:28.075Z,11.90
2019-06-01T01:16:04.124Z,11.90
2019-06-01T01:16:51.923Z,11.90
2019-06-01T01:17:27.482Z,11.90
2019-06-01T01:18:03.933Z,11.90
2019-06-01T01:18:39.926Z,11.90
2019-06-01T01:19:15.528Z,11.90
2019-06-01T01:19:51.965Z,11.90
2019-06-01T01:20:47.834Z,11.90
2019-06-01T01:21:23.523Z,11.80
2019-06-01T01:21:59.792Z,11.80
2019-06-01T01:22:35.464Z,11.80
2019-06-01T01:23:11.143Z,11.80
2019-06-01T01:23:48.202Z,11.80
2019-06-01T01:24:24.565Z,11.80
2019-06-01T01:25:00.108Z,11.80
2019-06-01T01:25:37.566Z,11.80
2019-06-01T01:26:14.753Z,11.80
2019-06-01T01:26:50.501Z,11.80
2019-06-01T01:27:26.726Z,11.80
2019-06-01T01:28:02.775Z,11.80
2019-06-01T01:28:38.196Z,11.80
2019-06-01T01:29:14.123Z,11.80
2019-06-01T01:29:50.942Z,11.80
2019-06-01T01:30:26.536Z,11.80
2019-06-01T01:31:12.730Z,11.80
2019-06-01T01:31:40.266Z,11.80
2019-06-01T01:32:16.224Z,11.80
2019-06-01T01:32:53.500Z,11.80
2019-06-01T01:33:29.603Z,11.80
2019-06-01T01:34:05.061Z,11.80
2019-06-01T01:34:41.111Z,11.80
2019-06-01T01:35:17.255Z,11.80
2019-06-01T01:35:54.085Z,11.80
2019-06-01T01:36:30.233Z,11.80
2019-06-01T01:37:06.303Z,11.80
2019-06-01T01:37:42.143Z,11.80
2019-06-01T01:38:17.751Z,11.80
2019-06-01T01:38:54.384Z,11.80
2019-06-01T01:39:30.186Z,11.80
2019-06-01T01:40:09.484Z,11.80
2019-06-01T01:40:47.892Z,11.80
2019-06-01T01:41:23.643Z,11.80
2019-06-01T01:41:59.991Z,11.80
2019-06-01T01:42:36.044Z,11.80
2019-06-01T01:43:11.368Z,11.80
2019-06-01T01:43:48.366Z,11.80
2019-06-01T01:44:24.601Z,11.80
2019-06-01T01:45:00.311Z,11.80
2019-06-01T01:45:36.380Z,11.80
2019-06-01T01:46:12.414Z,11.80
2019-06-01T01:46:48.631Z,11.80
2019-06-01T01:47:24.716Z,11.80
2019-06-01T01:48:01.415Z,11.80
2019-06-01T01:48:37.022Z,11.80
2019-06-01T01:49:12.849Z,11.80
2019-06-01T01:49:49.936Z,11.80
2019-06-01T01:50:27.417Z,11.70
2019-06-01T01:51:03.551Z,11.80
2019-06-01T01:51:39.588Z,11.70
2019-06-01T01:52:14.913Z,11.70
2019-06-01T01:52:50.971Z,11.70
2019-06-01T01:53:27.122Z,11.70
2019-06-01T01:54:04.502Z,11.70
2019-06-01T01:54:40.691Z,11.70
2019-06-01T01:55:17.192Z,11.70
2019-06-01T01:55:53.142Z,11.70
2019-06-01T01:56:29.180Z,11.70
2019-06-01T01:57:07.173Z,11.70
2019-06-01T01:57:42.190Z,11.70
2019-06-01T01:58:18.149Z,11.70
2019-06-01T01:58:54.292Z,11.70
2019-06-01T01:59:29.815Z,11.70
2019-06-01T02:00:11.426Z,11.70
2019-06-01T02:00:48.807Z,11.70
2019-06-01T02:01:24.302Z,11.70
2019-06-01T02:02:00.461Z,11.70
2019-06-01T02:02:36.709Z,11.60
2019-06-01T02:03:12.129Z,11.60
2019-06-01T02:03:48.160Z,11.60
2019-06-01T02:04:24.055Z,11.60
2019-06-01T02:04:59.929Z,11.60
2019-06-01T02:05:36.205Z,11.60
2019-06-01T02:06:12.227Z,11.60
2019-06-01T02:06:47.567Z,11.60
2019-06-01T02:07:23.737Z,11.60
2019-06-01T02:08:00.071Z,11.60
2019-06-01T02:08:35.816Z,11.60
2019-06-01T02:09:11.865Z,11.60
2019-06-01T02:09:48.017Z,11.60
2019-06-01T02:10:23.339Z,11.60
2019-06-01T02:10:59.557Z,11.60
2019-06-01T02:11:37.558Z,11.60
2019-06-01T02:12:12.567Z,11.60
2019-06-01T02:12:48.540Z,11.60
2019-06-01T02:13:24.599Z,11.60
2019-06-01T02:14:00.094Z,11.60
2019-06-01T02:14:36.168Z,11.60
2019-06-01T02:15:12.320Z,11.60
2019-06-01T02:15:47.745Z,11.60
2019-06-01T02:16:25.327Z,11.60
2019-06-01T02:17:02.515Z,11.60
2019-06-01T02:17:38.144Z,11.60
2019-06-01T02:18:14.082Z,11.60
2019-06-01T02:18:50.169Z,11.60
2019-06-01T02:19:25.760Z,11.60
2019-06-01T02:20:02.551Z,11.60
2019-06-01T02:20:40.476Z,11.60
2019-06-01T02:21:15.835Z,11.60
2019-06-01T02:21:52.333Z,11.60
2019-06-01T02:22:29.477Z,11.60
2019-06-01T02:23:06.057Z,11.60
2019-06-01T02:23:42.065Z,11.60
2019-06-01T02:24:18.097Z,11.60
2019-06-01T02:24:53.768Z,11.60
2019-06-01T02:25:30.007Z,11.60
2019-06-01T02:26:06.567Z,11.60
2019-06-01T02:26:41.985Z,11.60
2019-06-01T02:27:17.926Z,11.60
2019-06-01T02:27:55.033Z,11.60
2019-06-01T02:28:30.756Z,11.60
2019-06-01T02:29:06.797Z,11.60
2019-06-01T02:29:42.730Z,11.60
2019-06-01T02:30:18.708Z,11.60
2019-06-01T02:30:56.140Z,11.60
2019-06-01T02:31:41.458Z,11.60
2019-06-01T02:32:10.197Z,11.60
2019-06-01T02:32:46.112Z,11.60
2019-06-01T02:33:22.065Z,11.60
2019-06-01T02:33:58.674Z,11.60
2019-06-01T02:34:35.075Z,11.60
2019-06-01T02:35:11.228Z,11.60
2019-06-01T02:35:47.781Z,11.60
2019-06-01T02:36:23.726Z,11.60
2019-06-01T02:37:00.279Z,11.50
2019-06-01T02:37:35.935Z,11.60
2019-06-01T02:38:11.966Z,11.60
2019-06-01T02:38:48.010Z,11.60
2019-06-01T02:39:23.307Z,11.60
2019-06-01T02:40:00.799Z,11.60
2019-06-01T02:40:37.171Z,11.60
2019-06-01T02:41:12.700Z,11.60
2019-06-01T02:41:48.755Z,11.60
2019-06-01T02:42:24.691Z,11.60
2019-06-01T02:43:01.497Z,11.60
2019-06-01T02:43:37.702Z,11.50
2019-06-01T02:44:13.651Z,11.60
2019-06-01T02:44:49.081Z,11.60
2019-06-01T02:45:25.225Z,11.60
2019-06-01T02:46:02.698Z,11.60
2019-06-01T02:46:38.290Z,11.60
2019-06-01T02:47:14.137Z,11.60
2019-06-01T02:47:50.940Z,11.60
2019-06-01T02:48:26.271Z,11.60
2019-06-01T02:49:13.982Z,11.60
2019-06-01T02:49:49.628Z,11.60
2019-06-01T02:50:25.260Z,11.60
2019-06-01T02:51:01.804Z,11.60
2019-06-01T02:51:38.062Z,11.50
2019-06-01T02:52:13.601Z,11.50
2019-06-01T02:52:49.542Z,11.50
2019-06-01T02:53:25.481Z,11.50
2019-06-01T02:54:01.723Z,11.60
2019-06-01T02:54:38.101Z,11.60
2019-06-01T02:55:16.962Z,11.50
2019-06-01T02:55:52.429Z,11.50
2019-06-01T02:56:28.376Z,11.50
2019-06-01T02:57:04.173Z,11.50
2019-06-01T02:57:39.745Z,11.50
2019-06-01T02:58:15.596Z,11.50
2019-06-01T02:58:51.530Z,11.50
2019-06-01T02:59:27.990Z,11.50
2019-06-01T03:00:05.241Z,11.50
2019-06-01T03:01:07.695Z,11.50
2019-06-01T03:01:56.745Z,11.50
2019-06-01T03:02:24.515Z,11.50
2019-06-01T03:03:00.733Z,11.40
2019-06-01T03:03:36.307Z,11.40
2019-06-01T03:04:12.460Z,11.40
2019-06-01T03:04:48.738Z,11.40
2019-06-01T03:05:25.137Z,11.40
2019-06-01T03:06:03.510Z,11.40
2019-06-01T03:06:42.371Z,11.40
2019-06-01T03:07:19.317Z,11.40
2019-06-01T03:07:55.727Z,11.40
2019-06-01T03:08:35.032Z,11.40
2019-06-01T03:09:11.051Z,11.40
2019-06-01T03:09:47.291Z,11.40
2019-06-01T03:10:23.351Z,11.40
2019-06-01T03:11:01.807Z,11.40
2019-06-01T03:11:39.024Z,11.40
2019-06-01T03:12:17.834Z,11.40
2019-06-01T03:12:58.148Z,11.40
2019-06-01T03:13:36.684Z,11.30
2019-06-01T03:14:13.512Z,11.30
2019-06-01T03:14:51.641Z,11.30
2019-06-01T03:15:30.041Z,11.30
2019-06-01T03:16:06.648Z,11.30
2019-06-01T03:16:43.578Z,11.30
2019-06-01T03:17:23.501Z,11.30
2019-06-01T03:18:03.458Z,11.30
2019-06-01T03:18:40.722Z,11.30
2019-06-01T03:19:19.539Z,11.30
2019-06-01T03:19:57.718Z,11.30
2019-06-01T03:20:33.878Z,11.30
2019-06-01T03:21:12.050Z,11.30
2019-06-01T03:21:50.364Z,11.30
2019-06-01T03:22:26.361Z,11.30
2019-06-01T03:23:03.880Z,11.30
2019-06-01T03:23:42.795Z,11.30
2019-06-01T03:24:21.096Z,11.30
2019-06-01T03:25:01.888Z,11.30
2019-06-01T03:25:40.601Z,11.30
2019-06-01T03:26:17.718Z,11.30
2019-06-01T03:26:56.081Z,11.30
2019-06-01T03:27:34.140Z,11.30
2019-06-01T03:28:12.531Z,11.30
2019-06-01T03:28:51.431Z,11.30
2019-06-01T03:29:29.898Z,11.30
2019-06-01T03:30:09.856Z,11.30
2019-06-01T03:30:46.157Z,11.30
2019-06-01T03:31:22.373Z,11.30
2019-06-01T03:32:17.677Z,11.20
2019-06-01T03:32:37.300Z,11.30
2019-06-01T03:33:14.190Z,11.30
2019-06-01T03:33:50.051Z,11.30
2019-06-01T03:34:26.082Z,11.30
2019-06-01T03:35:02.883Z,11.30
2019-06-01T03:35:38.231Z,11.30
2019-06-01T03:36:14.316Z,11.30
2019-06-01T03:36:50.471Z,11.30
2019-06-01T03:37:26.412Z,11.30
2019-06-01T03:38:02.987Z,11.30
2019-06-01T03:38:39.111Z,11.30
2019-06-01T03:39:14.851Z,11.30
2019-06-01T03:39:51.011Z,11.30
2019-06-01T03:40:27.058Z,11.30
2019-06-01T03:41:02.576Z,11.30
2019-06-01T03:41:38.831Z,11.30
2019-06-01T03:42:14.772Z,11.30
2019-06-01T03:42:50.211Z,11.30
2019-06-01T03:43:26.207Z,11.30
2019-06-01T03:44:02.543Z,11.30
2019-06-01T03:44:37.958Z,11.30
2019-06-01T03:45:14.109Z,11.30
2019-06-01T03:45:50.239Z,11.40
2019-06-01T03:46:27.426Z,11.40
2019-06-01T03:47:03.852Z,11.40
2019-06-01T03:47:41.029Z,11.40
2019-06-01T03:48:16.347Z,11.40
2019-06-01T03:48:52.928Z,11.40
2019-06-01T03:49:28.951Z,11.40
2019-06-01T03:50:05.286Z,11.40
2019-06-01T03:50:41.420Z,11.40
2019-06-01T03:51:17.412Z,11.40
2019-06-01T03:51:52.836Z,11.40
2019-06-01T03:52:28.859Z,11.40
2019-06-01T03:53:05.832Z,11.40
2019-06-01T03:53:41.368Z,11.40
2019-06-01T03:54:17.377Z,11.50
2019-06-01T03:54:53.328Z,11.50
2019-06-01T03:55:28.686Z,11.50
2019-06-01T03:56:04.967Z,11.50
2019-06-01T03:56:41.186Z,11.50
2019-06-01T03:57:16.728Z,11.50
2019-06-01T03:57:52.661Z,11.50
2019-06-01T03:58:28.768Z,11.50
2019-06-01T03:59:05.067Z,11.50
2019-06-01T03:59:41.213Z,11.50
2019-06-01T04:00:17.168Z,11.60
2019-06-01T04:00:52.381Z,11.60
2019-06-01T04:01:28.430Z,11.60
2019-06-01T04:02:05.077Z,11.60
2019-06-01T04:02:40.828Z,11.60
2019-06-01T04:03:16.879Z,11.60
2019-06-01T04:03:53.011Z,11.60
2019-06-01T04:04:28.751Z,11.60
2019-06-01T04:05:05.690Z,11.60
2019-06-01T04:05:41.770Z,11.70
2019-06-01T04:06:17.157Z,11.70
2019-06-01T04:06:53.041Z,11.70
2019-06-01T04:07:29.081Z,11.70
2019-06-01T04:08:05.844Z,11.70
2019-06-01T04:08:42.005Z,11.70
2019-06-01T04:09:18.031Z,11.70
2019-06-01T04:09:53.573Z,11.70
2019-06-01T04:10:29.611Z,11.80
2019-06-01T04:11:05.725Z,11.80
2019-06-01T04:11:41.278Z,11.80
2019-06-01T04:12:17.452Z,11.80
2019-06-01T04:12:53.499Z,11.80
2019-06-01T04:13:28.898Z,11.80
2019-06-01T04:14:07.575Z,11.80
2019-06-01T04:14:47.251Z,11.80
2019-06-01T04:15:22.691Z,11.90
2019-06-01T04:15:58.630Z,11.90
2019-06-01T04:16:34.638Z,11.90
2019-06-01T04:17:10.253Z,11.90
2019-06-01T04:17:46.582Z,11.90
2019-06-01T04:18:22.471Z,11.90
2019-06-01T04:18:57.898Z,11.90
2019-06-01T04:19:34.046Z,11.90
2019-06-01T04:20:10.431Z,12.00
2019-06-01T04:20:45.863Z,12.00
2019-06-01T04:21:21.908Z,12.00
2019-06-01T04:21:57.923Z,12.00
2019-06-01T04:22:33.405Z,12.00
2019-06-01T04:23:10.216Z,12.00
2019-06-01T04:23:47.316Z,12.00
2019-06-01T04:24:22.771Z,12.00
2019-06-01T04:24:58.482Z,12.10
2019-06-01T04:25:34.528Z,12.00
2019-06-01T04:26:10.306Z,12.10
2019-06-01T04:26:46.377Z,12.10
2019-06-01T04:27:22.461Z,12.10
2019-06-01T04:27:58.186Z,12.10
2019-06-01T04:28:34.251Z,12.10
2019-06-01T04:29:10.398Z,12.20
2019-06-01T04:29:45.831Z,12.20
2019-06-01T04:30:24.735Z,12.20
2019-06-01T04:31:00.661Z,12.20
2019-06-01T04:31:36.111Z,12.20
2019-06-01T04:32:12.854Z,12.20
2019-06-01T04:32:50.496Z,12.20
2019-06-01T04:33:26.186Z,12.20
2019-06-01T04:34:02.504Z,12.30
2019-06-01T04:34:38.691Z,12.30
2019-06-01T04:35:14.122Z,12.30
2019-06-01T04:35:50.278Z,12.30
2019-06-01T04:36:26.528Z,12.40
2019-06-01T04:37:03.492Z,12.40
2019-06-01T04:37:39.332Z,12.40
2019-06-01T04:38:15.268Z,12.40
2019-06-01T04:38:50.607Z,12.40
2019-06-01T04:39:26.638Z,12.40
2019-06-01T04:40:03.302Z,12.40
2019-06-01T04:40:39.048Z,12.50
2019-06-01T04:41:15.208Z,12.50
2019-06-01T04:41:51.179Z,12.50
2019-06-01T04:42:26.671Z,12.50
2019-06-01T04:43:03.725Z,12.50
2019-06-01T04:43:39.957Z,12.60
2019-06-01T04:44:18.176Z,12.60
2019-06-01T04:44:52.970Z,12.60
2019-06-01T04:45:30.064Z,12.60
2019-06-01T04:46:06.147Z,12.60
2019-06-01T04:46:42.259Z,12.70
2019-06-01T04:47:18.301Z,12.70
2019-06-01T04:47:53.731Z,12.70
2019-06-01T04:48:29.778Z,12.70
2019-06-01T04:49:06.511Z,12.70
2019-06-01T04:49:42.158Z,12.80
2019-06-01T04:50:19.141Z,12.80
2019-06-01T04:50:55.085Z,12.80
2019-06-01T04:51:30.518Z,12.80
2019-06-01T04:52:06.789Z,12.80
2019-06-01T04:52:42.958Z,12.90
2019-06-01T04:53:18.438Z,12.90
2019-06-01T04:53:54.498Z,12.90
2019-06-01T04:54:30.536Z,12.90
2019-06-01T04:55:08.665Z,13.00
2019-06-01T04:55:45.081Z,13.00
2019-06-01T04:56:21.248Z,13.00
2019-06-01T04:56:56.778Z,13.00
2019-06-01T04:57:32.810Z,13.00
2019-06-01T04:58:08.980Z,13.10
2019-06-01T04:58:46.227Z,13.10
2019-06-01T04:59:22.152Z,13.10
2019-06-01T04:59:58.338Z,13.10
2019-06-01T05:00:34.878Z,13.20
2019-06-01T05:01:10.971Z,13.20
2019-06-01T05:01:46.876Z,13.20
2019-06-01T05:02:22.308Z,13.20
2019-06-01T05:03:05.260Z,13.30
2019-06-01T05:03:36.089Z,13.30
2019-06-01T05:04:11.575Z,13.30
2019-06-01T05:04:47.618Z,13.30
2019-06-01T05:05:23.643Z,13.40
2019-06-01T05:05:59.121Z,13.40
2019-06-01T05:06:35.332Z,13.40
2019-06-01T05:07:11.321Z,13.40
2019-06-01T05:07:46.679Z,13.40
2019-06-01T05:08:22.651Z,13.50
2019-06-01T05:08:58.692Z,13.50
2019-06-01T05:09:34.121Z,13.50
2019-06-01T05:10:11.618Z,13.50
2019-06-01T05:10:48.068Z,13.60
2019-06-01T05:11:23.708Z,13.60
2019-06-01T05:11:59.738Z,13.60
2019-06-01T05:12:35.790Z,13.60
2019-06-01T05:13:13.506Z,13.70
2019-06-01T05:13:49.828Z,13.70
2019-06-01T05:14:25.761Z,13.70
2019-06-01T05:15:01.101Z,13.80
2019-06-01T05:15:36.932Z,13.80
2019-06-01T05:16:14.518Z,13.80
2019-06-01T05:16:49.919Z,13.80
2019-06-01T05:17:25.836Z,13.80
2019-06-01T05:18:01.658Z,13.90
2019-06-01T05:18:37.155Z,13.90
2019-06-01T05:19:14.286Z,13.90
2019-06-01T05:19:50.578Z,13.90
2019-06-01T05:20:26.020Z,14.00
2019-06-01T05:21:08.428Z,14.00
2019-06-01T05:21:44.551Z,14.00
2019-06-01T05:22:20.191Z,14.00
2019-06-01T05:22:56.231Z,14.10
2019-06-01T05:23:32.276Z,14.10
2019-06-01T05:24:08.824Z,14.10
2019-06-01T05:24:44.935Z,14.20
2019-06-01T05:25:20.903Z,14.20
2019-06-01T05:25:56.468Z,14.20
2019-06-01T05:26:32.402Z,14.20
2019-06-01T05:27:09.001Z,14.30
2019-06-01T05:27:44.555Z,14.30
2019-06-01T05:28:20.501Z,14.30
2019-06-01T05:28:56.476Z,14.30
2019-06-01T05:29:31.812Z,14.40
2019-06-01T05:30:11.524Z,14.40
2019-06-01T05:30:47.466Z,14.50
2019-06-01T05:31:42.127Z,14.50
2019-06-01T05:32:18.822Z,14.50
2019-06-01T05:33:31.068Z,14.50
2019-06-01T05:33:52.210Z,14.60
2019-06-01T05:34:28.158Z,14.60
2019-06-01T05:35:04.486Z,14.60
2019-06-01T05:35:39.743Z,14.60
2019-06-01T05:36:18.707Z,14.70
2019-06-01T05:36:54.692Z,14.70
2019-06-01T05:37:30.102Z,14.70
2019-06-01T05:38:06.158Z,14.80
2019-06-01T05:38:48.678Z,14.80
2019-06-01T05:39:23.916Z,14.80
2019-06-01T05:39:59.849Z,14.90
2019-06-01T05:40:35.741Z,14.90
2019-06-01T05:41:13.270Z,14.90
2019-06-01T05:41:49.912Z,14.90
2019-06-01T05:42:25.961Z,15.00
2019-06-01T05:43:03.198Z,15.00
2019-06-01T05:43:51.178Z,15.00
2019-06-01T05:44:27.214Z,15.10
2019-06-01T05:45:02.841Z,15.10
2019-06-01T05:45:38.791Z,15.10
2019-06-01T05:46:15.985Z,15.10
2019-06-01T05:47:12.076Z,15.10
2019-06-01T05:47:49.868Z,15.20
2019-06-01T05:48:30.397Z,15.20
2019-06-01T05:49:02.972Z,15.20
2019-06-01T05:49:39.130Z,15.20
2019-06-01T05:50:16.346Z,15.30
2019-06-01T05:50:51.981Z,15.30
2019-06-01T05:51:27.971Z,15.30
2019-06-01T05:52:04.028Z,15.30
2019-06-01T05:52:39.419Z,15.30
2019-06-01T05:53:16.574Z,15.40
2019-06-01T05:53:52.871Z,15.40
2019-06-01T05:54:28.611Z,15.40
2019-06-01T05:55:05.991Z,15.50
2019-06-01T05:55:42.032Z,15.50
2019-06-01T05:56:18.850Z,15.50
2019-06-01T05:56:56.069Z,15.50
2019-06-01T05:57:32.111Z,15.60
2019-06-01T05:58:07.658Z,15.60
2019-06-01T05:58:43.692Z,15.60
2019-06-01T05:59:19.632Z,15.60
2019-06-01T05:59:55.049Z,15.70
2019-06-01T06:00:40.137Z,15.70
2019-06-01T06:01:16.438Z,15.70
2019-06-01T06:01:51.813Z,15.70
2019-06-01T06:02:27.740Z,15.80
2019-06-01T06:03:03.799Z,15.80
2019-06-01T06:03:40.526Z,15.80
2019-06-01T06:04:17.536Z,15.80
2019-06-01T06:04:54.781Z,15.90
2019-06-01T06:05:30.188Z,15.90
2019-06-01T06:06:06.271Z,15.90
2019-06-01T06:06:42.229Z,16.00
2019-06-01T06:07:18.786Z,16.00
2019-06-01T06:07:55.936Z,16.00
2019-06-01T06:08:31.981Z,16.00
2019-06-01T06:09:08.907Z,16.10
2019-06-01T06:09:45.113Z,16.10
2019-06-01T06:10:22.214Z,16.10
2019-06-01T06:10:58.316Z,16.10
2019-06-01T06:11:34.185Z,16.20
2019-06-01T06:12:11.248Z,16.20
2019-06-01T06:12:46.618Z,16.20
2019-06-01T06:13:22.542Z,16.20
2019-06-01T06:13:58.552Z,16.20
2019-06-01T06:14:34.059Z,16.20
2019-06-01T06:15:11.334Z,16.30
2019-06-01T06:15:47.360Z,16.30
2019-06-01T06:16:22.758Z,16.30
2019-06-01T06:16:58.378Z,16.30
2019-06-01T06:17:34.318Z,16.40
2019-06-01T06:18:09.618Z,16.40
2019-06-01T06:18:45.671Z,16.40
2019-06-01T06:19:23.471Z,16.40
2019-06-01T06:19:58.497Z,16.40
2019-06-01T06:20:34.437Z,16.50
2019-06-01T06:21:10.379Z,16.50
2019-06-01T06:21:45.798Z,16.50
2019-06-01T06:22:22.440Z,16.60
2019-06-01T06:22:58.398Z,16.60
2019-06-01T06:23:33.758Z,16.60
2019-06-01T06:24:09.817Z,16.60
2019-06-01T06:24:45.682Z,16.70
2019-06-01T06:25:21.038Z,16.70
2019-06-01T06:25:56.901Z,16.70
2019-06-01T06:26:32.858Z,16.70
2019-06-01T06:27:08.458Z,16.70
2019-06-01T06:27:44.399Z,16.80
2019-06-01T06:28:20.796Z,16.80
2019-06-01T06:28:56.217Z,16.80
2019-06-01T06:29:32.137Z,16.80
2019-06-01T06:30:08.877Z,16.90
2019-06-01T06:30:44.158Z,16.80
2019-06-01T06:31:21.125Z,16.90
2019-06-01T06:31:58.258Z,16.90
2019-06-01T06:32:33.659Z,16.90
2019-06-01T06:33:09.598Z,16.90
2019-06-01T06:33:56.110Z,16.90
2019-06-01T06:34:23.549Z,17.00
2019-06-01T06:34:59.578Z,17.00
2019-06-01T06:35:35.441Z,17.00
2019-06-01T06:36:10.798Z,17.00
2019-06-01T06:36:46.778Z,17.10
2019-06-01T06:37:23.805Z,17.10
2019-06-01T06:37:59.540Z,17.10
2019-06-01T06:38:35.519Z,17.10
2019-06-01T06:39:11.457Z,17.10
2019-06-01T06:39:46.749Z,17.20
2019-06-01T06:40:22.587Z,17.20
2019-06-01T06:40:58.488Z,17.20
2019-06-01T06:41:33.961Z,17.20
2019-06-01T06:42:09.938Z,17.30
2019-06-01T06:42:45.922Z,17.30
2019-06-01T06:43:29.480Z,17.30
2019-06-01T06:43:59.477Z,17.30
2019-06-01T06:44:35.510Z,17.30
2019-06-01T06:45:11.265Z,17.40
2019-06-01T06:45:47.508Z,17.40
2019-06-01T06:46:23.451Z,17.40
2019-06-01T06:47:00.003Z,17.40
2019-06-01T06:47:36.169Z,17.40
2019-06-01T06:48:13.425Z,17.50
2019-06-01T06:48:49.238Z,17.50
2019-06-01T06:49:25.426Z,17.50
2019-06-01T06:50:01.764Z,17.50
2019-06-01T06:50:37.297Z,17.50
2019-06-01T06:51:13.341Z,17.60
2019-06-01T06:51:49.698Z,17.60
2019-06-01T06:52:25.742Z,17.60
2019-06-01T06:53:01.906Z,17.60
2019-06-01T06:53:38.050Z,17.60
2019-06-01T06:54:14.689Z,17.70
2019-06-01T06:54:51.149Z,17.70
2019-06-01T06:55:27.194Z,17.70
2019-06-01T06:56:02.630Z,17.70
2019-06-01T06:56:39.413Z,17.70
2019-06-01T06:57:15.980Z,17.70
2019-06-01T06:57:51.482Z,17.80
2019-06-01T06:58:27.636Z,17.80
2019-06-01T06:59:03.667Z,17.80
2019-06-01T06:59:39.098Z,17.80
2019-06-01T07:00:16.370Z,17.80
2019-06-01T07:00:52.746Z,17.80
2019-06-01T07:01:28.149Z,17.90
2019-06-01T07:02:04.056Z,17.90
2019-06-01T07:02:40.156Z,17.90
2019-06-01T07:03:16.600Z,17.90
2019-06-01T07:03:52.986Z,17.90
2019-06-01T07:04:28.986Z,17.90
2019-06-01T07:05:07.004Z,18.00
2019-06-01T07:05:42.705Z,18.00
2019-06-01T07:06:19.497Z,18.00
2019-06-01T07:06:55.240Z,18.00
2019-06-01T07:07:31.386Z,18.10
2019-06-01T07:08:07.431Z,18.10
2019-06-01T07:08:42.866Z,18.10
2019-06-01T07:09:21.856Z,18.10
2019-06-01T07:09:56.425Z,18.20
2019-06-01T07:10:31.811Z,18.20
2019-06-01T07:11:07.849Z,18.20
2019-06-01T07:11:43.906Z,18.20
2019-06-01T07:12:19.324Z,18.20
2019-06-01T07:12:55.270Z,18.30
2019-06-01T07:13:31.621Z,18.30
2019-06-01T07:14:07.169Z,18.30
2019-06-01T07:14:43.098Z,18.30
2019-06-01T07:15:19.270Z,18.30
2019-06-01T07:15:54.781Z,18.40
2019-06-01T07:16:31.811Z,18.40
2019-06-01T07:17:07.763Z,18.40
2019-06-01T07:17:43.029Z,18.40
2019-06-01T07:18:19.427Z,18.50
2019-06-01T07:18:55.736Z,18.50
2019-06-01T07:19:31.896Z,18.50
2019-06-01T07:20:08.473Z,18.50
2019-06-01T07:20:44.690Z,18.50
2019-06-01T07:21:20.109Z,18.60
2019-06-01T07:21:55.981Z,18.60
2019-06-01T07:22:32.110Z,18.60
2019-06-01T07:23:07.552Z,18.60
2019-06-01T07:23:43.450Z,18.70
2019-06-01T07:24:19.640Z,18.70
2019-06-01T07:24:55.164Z,18.80
2019-06-01T07:25:31.087Z,18.70
2019-06-01T07:26:07.248Z,18.80
2019-06-01T07:26:43.090Z,18.80
2019-06-01T07:27:19.916Z,18.80
2019-06-01T07:27:56.674Z,18.90
2019-06-01T07:28:32.457Z,18.90
2019-06-01T07:29:08.259Z,18.90
2019-06-01T07:29:44.170Z,19.00
2019-06-01T07:30:22.170Z,19.00
2019-06-01T07:30:58.074Z,19.00
2019-06-01T07:31:33.781Z,19.00
2019-06-01T07:32:08.992Z,19.00
2019-06-01T07:32:44.768Z,19.00
2019-06-01T07:33:20.579Z,19.00
2019-06-01T07:33:55.773Z,19.10
2019-06-01T07:34:41.223Z,19.10
2019-06-01T07:35:09.098Z,19.10
2019-06-01T07:35:44.143Z,19.10
2019-06-01T07:36:20.261Z,19.10
2019-06-01T07:36:56.233Z,19.20
2019-06-01T07:37:31.318Z,19.20
2019-06-01T07:38:07.115Z,19.20
2019-06-01T07:38:42.886Z,19.20
2019-06-01T07:39:18.123Z,19.30
2019-06-01T07:39:53.953Z,19.30
2019-06-01T07:40:30.713Z,19.30
2019-06-01T07:41:05.998Z,19.30
2019-06-01T07:41:45.320Z,19.30
2019-06-01T07:42:24.450Z,19.40
2019-06-01T07:42:58.103Z,19.40
2019-06-01T07:43:34.083Z,19.40
2019-06-01T07:44:10.128Z,19.50
2019-06-01T07:44:45.572Z,19.50
2019-06-01T07:45:22.791Z,19.50
2019-06-01T07:45:59.238Z,19.50
2019-06-01T07:46:34.823Z,19.60
2019-06-01T07:47:10.763Z,19.60
2019-06-01T07:47:46.810Z,19.60
2019-06-01T07:48:23.104Z,19.60
2019-06-01T07:48:59.418Z,19.60
2019-06-01T07:49:35.444Z,19.70
2019-06-01T07:50:10.968Z,19.70